Time;durP1;ratioP1;P1;durP2;ratioP2;P2;SDS_P1;SDS_P2;PMS_P1;PMS_P2;Temp;Humidity;BMP_temperature;BMP_pressure;BME280_temperature;BME280_humidity;BME280_pressure;Samples;Min_cycle;Max_cycle;Signal;HPM_P1;HPM_P2
2022/09/18 05:05:04;;;;;;;3.92;1.30;;;10.30;99.90;;;;;;10478639;23;20049;-77
2022/09/18 05:10:09;;;;;;;5.25;1.30;;;10.30;99.90;;;;;;10373152;28;20061;-80
2022/09/18 05:15:12;;;;;;;5.35;1.20;;;10.30;99.90;;;;;;10362446;28;20045;-78
2022/09/18 05:20:16;;;;;;;5.55;1.17;;;10.30;99.90;;;;;;10358348;28;20053;-74
2022/09/18 05:25:19;;;;;;;6.80;1.83;;;10.30;99.90;;;;;;10359676;28;20049;-77
2022/09/18 05:30:21;;;;;;;3.42;1.17;;;10.30;99.90;;;;;;10363073;28;20109;-78
2022/09/18 05:35:27;;;;;;;3.95;1.23;;;10.30;99.90;;;;;;10355864;28;20053;-77
2022/09/18 05:40:32;;;;;;;3.80;1.20;;;10.40;99.90;;;;;;10367094;28;20046;-76
2022/09/18 05:45:36;;;;;;;3.80;1.20;;;10.40;99.90;;;;;;10365877;28;20041;-78
2022/09/18 05:50:41;;;;;;;2.95;0.93;;;10.40;99.90;;;;;;10372006;28;20415;-79
2022/09/18 05:55:43;;;;;;;4.30;1.33;;;10.40;99.90;;;;;;10355113;28;20038;-79
2022/09/18 06:00:46;;;;;;;4.80;1.30;;;10.40;99.90;;;;;;10352373;28;20909;-78
2022/09/18 06:05:54;;;;;;;4.30;1.35;;;10.40;99.90;;;;;;10359425;28;20065;-79
2022/09/18 06:11:00;;;;;;;3.40;1.30;;;10.40;99.90;;;;;;10368296;28;20049;-79
2022/09/18 06:16:03;;;;;;;5.57;1.50;;;10.40;99.90;;;;;;10370539;28;20414;-77
2022/09/18 06:21:07;;;;;;;5.25;1.30;;;10.40;99.90;;;;;;10371162;28;20053;-77
2022/09/18 06:26:11;;;;;;;4.32;1.40;;;10.40;99.90;;;;;;10360157;28;20046;-79
2022/09/18 06:31:13;;;;;;;3.17;1.40;;;10.50;99.90;;;;;;10372217;28;20104;-81
2022/09/18 06:36:17;;;;;;;4.95;1.48;;;10.60;99.90;;;;;;10375376;28;20046;-78
2022/09/18 06:41:19;;;;;;;6.40;1.50;;;10.50;99.90;;;;;;10379263;28;20058;-79
2022/09/18 06:46:22;;;;;;;4.50;1.40;;;10.60;99.90;;;;;;10378359;28;20054;-77
2022/09/18 06:51:25;;;;;;;4.63;1.77;;;10.60;99.90;;;;;;10379404;28;20129;-79
2022/09/18 06:56:27;;;;;;;5.30;1.52;;;10.60;99.90;;;;;;10376537;28;20076;-78
2022/09/18 07:01:29;;;;;;;4.55;1.30;;;10.70;99.90;;;;;;10378308;28;20070;-81
2022/09/18 07:06:33;;;;;;;7.38;1.50;;;10.80;99.90;;;;;;10369646;28;20045;-79
2022/09/18 07:11:35;;;;;;;6.32;1.60;;;10.80;99.90;;;;;;10375628;28;20046;-80
2022/09/18 07:16:37;;;;;;;4.72;1.33;;;10.90;99.90;;;;;;10376898;28;20438;-77
2022/09/18 07:21:41;;;;;;;3.50;1.45;;;10.90;99.90;;;;;;10375657;28;20050;-77
2022/09/18 07:26:43;;;;;;;5.03;1.60;;;10.90;99.90;;;;;;10375363;28;20046;-81
2022/09/18 07:31:45;;;;;;;4.20;1.20;;;11.00;99.90;;;;;;10376278;28;20046;-80
2022/09/18 07:36:50;;;;;;;3.83;1.40;;;11.10;99.90;;;;;;10370765;28;20046;-79
2022/09/18 07:41:52;;;;;;;4.95;1.60;;;11.10;99.90;;;;;;10373537;28;20046;-79
2022/09/18 07:46:55;;;;;;;5.40;1.33;;;11.20;99.90;;;;;;10352475;28;20046;-79
2022/09/18 07:51:58;;;;;;;5.95;1.33;;;11.20;99.90;;;;;;10374596;28;20100;-76
2022/09/18 07:57:01;;;;;;;4.50;1.40;;;11.20;99.90;;;;;;10374178;28;20459;-76
2022/09/18 08:02:04;;;;;;;9.75;1.60;;;11.30;99.90;;;;;;10376682;28;20050;-77
2022/09/18 08:07:08;;;;;;;7.07;1.73;;;11.30;99.90;;;;;;10377955;28;20049;-75
2022/09/18 08:12:10;;;;;;;6.05;1.10;;;11.30;99.90;;;;;;10375369;28;20069;-80
2022/09/18 08:17:12;;;;;;;2.70;1.00;;;11.40;99.90;;;;;;10349749;28;20054;-77
2022/09/18 08:22:15;;;;;;;4.40;1.00;;;11.40;99.90;;;;;;10375695;28;20105;-78
2022/09/18 08:27:17;;;;;;;4.30;1.33;;;11.40;99.90;;;;;;10368798;28;20411;-77
2022/09/18 08:32:19;;;;;;;6.40;0.93;;;11.50;99.90;;;;;;10331249;28;20046;-76
2022/09/18 08:37:23;;;;;;;4.15;1.10;;;11.50;99.90;;;;;;10382556;28;20050;-78
2022/09/18 08:42:34;;;;;;;3.20;0.90;;;11.50;99.90;;;;;;10371089;28;20054;-77
2022/09/18 08:47:41;;;;;;;5.25;1.00;;;11.50;99.90;;;;;;10360962;28;20053;-77
2022/09/18 08:52:49;;;;;;;4.40;0.80;;;11.50;99.90;;;;;;10384290;28;20114;-78
2022/09/18 08:57:56;;;;;;;3.63;1.20;;;11.60;99.90;;;;;;10362370;28;20559;-76
2022/09/18 09:03:17;;;;;;;3.97;1.15;;;11.70;99.90;;;;;;10340661;28;20111;-78
2022/09/18 09:08:55;;;;;;;3.35;0.90;;;11.70;99.90;;;;;;10375986;28;20058;-79
2022/09/18 09:14:05;;;;;;;;;;;11.70;99.90;;;;;;10372923;28;20049;-78
2022/09/18 09:19:30;;;;;;;4.47;0.95;;;11.70;99.90;;;;;;10379172;28;19921;-79
2022/09/18 09:24:38;;;;;;;2.45;0.80;;;11.70;99.90;;;;;;10374092;28;20081;-78
2022/09/18 09:29:44;;;;;;;2.63;0.80;;;11.80;99.90;;;;;;10365849;28;20064;-75
2022/09/18 09:34:52;;;;;;;3.22;0.98;;;11.80;99.90;;;;;;10375977;28;20042;-80
2022/09/18 09:40:00;;;;;;;3.47;0.93;;;11.80;99.90;;;;;;10368909;28;20442;-80
2022/09/18 09:45:11;;;;;;;4.50;0.85;;;11.70;99.90;;;;;;10367018;28;20060;-78
2022/09/18 09:50:36;;;;;;;4.05;1.10;;;11.70;99.90;;;;;;10379532;28;20479;-78
2022/09/18 09:55:52;;;;;;;10.80;4.60;;;11.80;99.90;;;;;;10365707;28;20046;-76
2022/09/18 10:01:06;;;;;;;4.25;1.17;;;11.90;99.90;;;;;;10368348;28;20468;-77
2022/09/18 10:06:41;;;;;;;4.68;1.23;;;12.00;99.90;;;;;;10377118;28;20057;-77
2022/09/18 10:11:55;;;;;;;3.40;0.90;;;12.10;99.90;;;;;;10371448;28;20057;-75
2022/09/18 10:16:59;;;;;;;3.13;1.00;;;12.30;99.90;;;;;;10389298;28;20049;-80
2022/09/18 10:22:07;;;;;;;4.30;0.98;;;12.60;99.90;;;;;;10350178;28;20054;-79
2022/09/18 10:27:13;;;;;;;5.03;1.17;;;12.70;99.90;;;;;;10349192;28;20502;-79
2022/09/18 10:32:33;;;;;;;4.78;1.10;;;13.00;99.90;;;;;;10376702;28;20046;-80
2022/09/18 10:37:41;;;;;;;7.50;1.10;;;13.10;99.90;;;;;;10377138;28;21051;-79
2022/09/18 10:42:44;;;;;;;4.72;1.30;;;13.20;99.90;;;;;;10373867;28;20050;-79
2022/09/18 10:47:46;;;;;;;5.43;1.00;;;13.30;99.90;;;;;;10386477;28;20065;-80
2022/09/18 10:52:52;;;;;;;5.00;1.13;;;13.40;99.90;;;;;;10374108;28;20046;-80
2022/09/18 10:58:13;;;;;;;4.68;1.10;;;13.60;99.70;;;;;;10381232;28;20050;-79
2022/09/18 11:03:38;;;;;;;5.88;1.17;;;13.60;99.60;;;;;;10381678;28;20046;-80
2022/09/18 11:08:45;;;;;;;6.55;1.20;;;13.60;99.30;;;;;;10362513;28;20081;-76
2022/09/18 11:13:57;;;;;;;4.80;1.40;;;13.80;99.90;;;;;;10388423;28;20108;-78
2022/09/18 11:19:07;;;;;;;5.28;1.17;;;14.00;99.80;;;;;;10373147;28;20049;-78
2022/09/18 11:24:19;;;;;;;5.63;1.42;;;14.00;99.20;;;;;;10366958;28;20082;-78
2022/09/18 11:29:38;;;;;;;5.20;1.00;;;13.80;98.60;;;;;;10386333;28;20060;-79
2022/09/18 11:34:47;;;;;;;4.78;1.20;;;14.00;98.60;;;;;;10344384;28;20073;-79
2022/09/18 11:39:58;;;;;;;;;;;14.20;98.20;;;;;;10371247;28;20053;-76
2022/09/18 11:45:40;;;;;;;3.22;1.00;;;14.20;98.40;;;;;;10379152;28;19921;-78
2022/09/18 11:50:42;;;;;;;5.93;1.10;;;14.20;98.00;;;;;;10364213;28;20054;-78
2022/09/18 11:55:49;;;;;;;3.05;0.93;;;14.30;97.60;;;;;;10374623;28;20049;-77
2022/09/18 12:01:02;;;;;;;4.40;1.00;;;14.30;97.70;;;;;;10379453;28;20064;-77
2022/09/18 12:06:12;;;;;;;4.97;1.58;;;14.50;96.10;;;;;;10371199;28;20057;-78
2022/09/18 12:11:22;;;;;;;3.63;0.93;;;14.50;95.90;;;;;;10378322;28;20050;-78
2022/09/18 12:16:39;;;;;;;4.28;1.00;;;14.10;95.10;;;;;;10372395;28;20046;-79
2022/09/18 12:21:50;;;;;;;4.77;1.17;;;14.00;95.70;;;;;;10366678;28;20539;-80
2022/09/18 12:27:15;;;;;;;6.05;1.00;;;14.00;96.70;;;;;;10373616;28;20057;-79
2022/09/18 12:32:42;;;;;;;6.85;1.17;;;13.90;97.10;;;;;;10367066;28;20049;-79
2022/09/18 12:37:58;;;;;;;3.25;0.98;;;14.00;97.40;;;;;;10370116;28;20101;-79
2022/09/18 12:43:28;;;;;;;3.42;1.10;;;14.00;96.80;;;;;;10375892;28;20057;-79
2022/09/18 12:48:50;;;;;;;6.32;1.00;;;14.00;96.70;;;;;;10374623;28;20076;-81
2022/09/18 12:54:06;;;;;;;4.60;1.00;;;13.90;97.00;;;;;;10370677;28;20085;-80
2022/09/18 12:59:38;;;;;;;3.90;0.98;;;14.00;97.40;;;;;;10370544;28;20061;-78
2022/09/18 13:04:47;;;;;;;2.88;0.80;;;14.20;96.90;;;;;;10366303;28;20131;-78
2022/09/18 13:10:02;;;;;;;4.03;1.00;;;14.40;96.80;;;;;;10369472;28;20160;-77
2022/09/18 13:15:14;;;;;;;5.85;1.90;;;14.30;97.70;;;;;;10366707;28;20050;-77
2022/09/18 13:20:23;;;;;;;4.85;1.10;;;14.40;97.10;;;;;;10366429;28;20099;-78
2022/09/18 13:25:32;;;;;;;4.65;1.10;;;14.40;96.80;;;;;;10363432;28;20413;-79
2022/09/18 13:30:34;;;;;;;6.03;1.20;;;14.40;97.50;;;;;;10366917;28;20131;-77
2022/09/18 13:35:38;;;;;;;3.75;1.05;;;14.40;97.30;;;;;;10368298;28;20049;-80
2022/09/18 13:40:43;;;;;;;4.53;1.20;;;14.60;96.90;;;;;;10364109;28;20804;-79
2022/09/18 13:45:46;;;;;;;3.63;0.90;;;14.70;96.30;;;;;;10363864;28;20049;-79
2022/09/18 13:50:54;;;;;;;6.07;1.30;;;14.60;95.30;;;;;;10364819;28;20054;-76
2022/09/18 13:55:56;;;;;;;3.10;0.95;;;14.50;96.20;;;;;;10365234;28;20061;-79
2022/09/18 14:00:59;;;;;;;3.38;0.90;;;14.50;94.30;;;;;;10358897;28;20053;-79
2022/09/18 14:06:43;;;;;;;3.90;0.88;;;14.30;92.10;;;;;;10316724;28;20511;-78
2022/09/18 14:11:46;;;;;;;2.72;0.98;;;14.40;92.50;;;;;;10355513;28;20057;-80
2022/09/18 14:16:49;;;;;;;3.50;1.00;;;14.30;92.80;;;;;;10355664;28;20126;-79
2022/09/18 14:21:53;;;;;;;3.35;0.95;;;14.30;92.60;;;;;;10353158;28;20041;-79
2022/09/18 14:27:30;;;;;;;2.55;0.80;;;14.20;92.00;;;;;;10363446;28;20494;-79
2022/09/18 14:32:32;;;;;;;5.65;0.82;;;14.10;91.40;;;;;;10338670;28;20530;-79
2022/09/18 14:37:36;;;;;;;3.55;0.85;;;14.10;91.60;;;;;;10361838;28;20046;-80
2022/09/18 14:42:41;;;;;;;3.67;0.98;;;14.00;91.80;;;;;;10363635;28;20395;-79
2022/09/18 14:47:46;;;;;;;2.90;0.82;;;14.00;92.10;;;;;;10365044;28;20050;-80
2022/09/18 14:52:49;;;;;;;3.50;0.73;;;14.00;92.20;;;;;;10366372;28;20057;-76
2022/09/18 14:57:58;;;;;;;2.53;0.65;;;13.90;92.80;;;;;;10370260;28;20053;-78
2022/09/18 15:03:06;;;;;;;2.83;0.77;;;14.00;93.10;;;;;;10373707;28;20062;-79
2022/09/18 15:08:17;;;;;;;2.45;0.80;;;14.10;93.10;;;;;;10373193;28;20096;-77
2022/09/18 15:13:20;;;;;;;4.38;0.88;;;14.10;93.40;;;;;;10373850;28;20100;-78
2022/09/18 15:18:26;;;;;;;2.63;0.90;;;14.10;93.40;;;;;;10368646;28;20045;-79
2022/09/18 15:23:35;;;;;;;3.50;1.00;;;14.00;93.20;;;;;;10372552;28;20054;-81
2022/09/18 15:28:41;;;;;;;2.15;0.80;;;14.00;93.50;;;;;;10373004;28;22044;-79
2022/09/18 15:33:52;;;;;;;3.58;1.00;;;14.10;93.90;;;;;;10369308;28;20175;-80
2022/09/18 15:38:57;;;;;;;3.75;0.90;;;14.00;94.10;;;;;;10372426;28;20069;-79
2022/09/18 15:43:59;;;;;;;3.15;0.70;;;14.00;93.80;;;;;;10369569;28;20419;-78
2022/09/18 15:49:03;;;;;;;4.28;1.10;;;13.90;93.70;;;;;;10379619;28;20061;-78
2022/09/18 15:54:25;;;;;;;3.05;1.00;;;13.90;93.80;;;;;;10376701;28;20049;-77
2022/09/18 15:59:33;;;;;;;2.75;0.80;;;13.80;93.90;;;;;;10371870;28;20092;-79
2022/09/18 16:04:36;;;;;;;3.70;0.87;;;13.80;93.60;;;;;;10358016;28;20133;-79
2022/09/18 16:09:42;;;;;;;15.63;3.60;;;13.70;93.60;;;;;;10340011;28;20051;-79
2022/09/18 16:14:48;;;;;;;5.55;1.00;;;13.70;93.60;;;;;;10349900;28;20499;-81
2022/09/18 16:19:53;;;;;;;4.93;0.95;;;13.70;93.00;;;;;;10371889;28;20053;-80
2022/09/18 16:24:57;;;;;;;3.22;0.95;;;13.80;97.40;;;;;;10369336;28;20380;-77
2022/09/18 16:29:59;;;;;;;2.72;0.70;;;;;;;;;;10369487;28;20057;-80
2022/09/18 16:35:06;;;;;;;3.65;0.90;;;13.70;93.20;;;;;;10367542;28;20097;-78
2022/09/18 16:40:17;;;;;;;3.47;0.93;;;13.60;93.30;;;;;;10348468;28;20050;-79
2022/09/18 16:45:21;;;;;;;3.80;0.88;;;;;;;;;;10363538;28;20046;-77
2022/09/18 16:50:24;;;;;;;4.47;0.80;;;;;;;;;;10369436;28;20201;-78
2022/09/18 16:55:28;;;;;;;5.25;1.10;;;13.60;93.70;;;;;;10367493;28;20057;-77
2022/09/18 17:00:31;;;;;;;4.22;1.00;;;;;;;;;;10368795;28;20411;-78
2022/09/18 17:05:33;;;;;;;4.43;0.88;;;13.30;99.90;;;;;;10367291;28;20069;-78
2022/09/18 17:10:37;;;;;;;4.18;1.00;;;13.60;93.60;;;;;;10363987;28;20187;-79
2022/09/18 17:15:39;;;;;;;2.55;0.77;;;;;;;;;;10368098;28;20057;-79
2022/09/18 17:20:42;;;;;;;3.20;1.08;;;;;;;;;;10363619;28;20454;-77
2022/09/18 17:25:45;;;;;;;3.95;1.20;;;13.60;93.10;;;;;;10367968;28;20143;-77
2022/09/18 17:30:49;;;;;;;4.60;1.10;;;;;;;;;;10365118;28;20057;-78
2022/09/18 17:35:51;;;;;;;2.88;0.80;;;;;;;;;;10355949;28;20344;-78
2022/09/18 17:41:00;;;;;;;4.03;0.85;;;13.60;92.90;;;;;;10366516;28;20050;-79
2022/09/18 17:46:06;;;;;;;4.38;0.90;;;13.70;99.90;;;;;;10362811;28;20085;-79
2022/09/18 17:51:11;;;;;;;3.90;1.10;;;13.60;93.10;;;;;;10364200;28;20061;-79
2022/09/18 17:56:19;;;;;;;4.65;0.90;;;13.50;93.30;;;;;;10362718;28;20053;-77
2022/09/18 18:01:21;;;;;;;2.75;0.70;;;;;;;;;;10366696;28;20057;-79
2022/09/18 18:06:24;;;;;;;1.80;0.70;;;;;;;;;;10364775;28;20053;-78
2022/09/18 18:11:28;;;;;;;3.67;0.85;;;13.50;93.40;;;;;;10373372;28;20060;-77
2022/09/18 18:16:31;;;;;;;2.67;1.08;;;13.50;93.70;;;;;;10353961;28;20046;-77
2022/09/18 18:21:34;;;;;;;14.38;5.22;;;13.50;93.70;;;;;;10359299;28;20506;-79
2022/09/18 18:26:39;;;;;;;4.82;1.20;;;13.50;93.70;;;;;;10360120;28;20096;-78
2022/09/18 18:31:42;;;;;;;3.25;1.20;;;13.40;93.90;;;;;;10368934;28;20050;-78
2022/09/18 18:36:45;;;;;;;8.57;1.10;;;;;;;;;;10375511;28;20049;-79
2022/09/18 18:41:49;;;;;;;4.20;1.20;;;13.30;94.00;;;;;;10374147;28;20057;-79
2022/09/18 18:46:51;;;;;;;4.03;0.90;;;;;;;;;;10344723;28;20058;-79
2022/09/18 18:51:54;;;;;;;2.47;1.00;;;;;;;;;;10371556;28;20424;-79
2022/09/18 18:56:57;;;;;;;3.30;1.05;;;13.30;94.00;;;;;;10377134;28;20065;-79
2022/09/18 19:02:01;;;;;;;3.05;0.90;;;;;;;;;;10374192;28;20058;-79
2022/09/18 19:07:04;;;;;;;14.85;4.93;;;;;;;;;;10371803;28;20149;-78
2022/09/18 19:12:08;;;;;;;3.97;1.20;;;13.20;94.00;;;;;;10374310;28;20108;-77
2022/09/18 19:17:12;;;;;;;2.95;1.00;;;;;;;;;;10372064;28;20058;-80
2022/09/18 19:22:17;;;;;;;3.63;0.90;;;;;;;;;;10354762;28;20065;-78
2022/09/18 19:27:22;;;;;;;2.80;1.02;;;13.30;93.70;;;;;;10367990;28;20050;-79
2022/09/18 19:32:24;;;;;;;4.38;1.10;;;;;;;;;;10375643;28;20141;-78
2022/09/18 19:37:28;;;;;;;3.00;0.80;;;;;;;;;;10372921;28;20061;-77
2022/09/18 19:42:32;;;;;;;2.35;0.80;;;13.30;93.70;;;;;;10369548;28;20060;-78
2022/09/18 19:47:39;;;;;;;3.15;1.00;;;13.30;93.80;;;;;;10369752;28;20161;-80
2022/09/18 19:52:42;;;;;;;3.08;0.90;;;;;;;;;;10365540;28;20057;-78
2022/09/18 19:57:45;;;;;;;4.47;1.02;;;13.30;94.00;;;;;;10368919;28;20058;-80
2022/09/18 20:02:48;;;;;;;3.47;0.90;;;;;;;;;;10370942;28;20054;-79
2022/09/18 20:07:51;;;;;;;2.47;1.00;;;;;;;;;;10370739;28;20140;-80
2022/09/18 20:12:55;;;;;;;4.30;1.10;;;13.20;94.60;;;;;;10375117;28;20053;-79
2022/09/18 20:17:58;;;;;;;4.22;1.23;;;;;;;;;;10369452;28;20057;-77
2022/09/18 20:23:00;;;;;;;7.68;2.58;;;;;;;;;;10370583;28;20050;-80
2022/09/18 20:28:04;;;;;;;3.70;0.93;;;13.10;96.20;;;;;;10376719;28;20049;-78
2022/09/18 20:33:07;;;;;;;4.47;1.00;;;;;;;;;;10371967;28;20407;-78
2022/09/18 20:38:10;;;;;;;5.40;0.90;;;;;;;;;;10368959;28;20048;-78
2022/09/18 20:43:15;;;;;;;4.82;1.45;;;;;;;;;;10359409;28;20533;-78
2022/09/18 20:48:20;;;;;;;6.50;1.08;;;;;;;;;;10369677;28;20491;-79
2022/09/18 20:53:23;;;;;;;2.42;1.00;;;;;;;;;;10369669;28;20060;-79
2022/09/18 20:58:27;;;;;;;4.50;1.23;;;;;;;;;;10369217;28;20075;-78
2022/09/18 21:03:29;;;;;;;4.13;1.00;;;;;;;;;;10369137;28;20052;-79
2022/09/18 21:08:31;;;;;;;3.97;1.25;;;;;;;;;;10368067;28;20038;-80
2022/09/18 21:13:35;;;;;;;3.22;1.10;;;;;;;;;;10369644;28;20046;-79
2022/09/18 21:18:39;;;;;;;3.55;0.90;;;;;;;;;;10368805;28;20046;-77
2022/09/18 21:23:57;;;;;;;4.00;0.90;;;12.60;99.90;;;;;;10373343;28;20046;-79
2022/09/18 21:29:03;;;;;;;2.63;0.88;;;;;;;;;;10371542;28;20046;-80
2022/09/18 21:34:05;;;;;;;4.85;1.10;;;;;;;;;;10374155;28;20050;-78
2022/09/18 21:39:09;;;;;;;2.95;1.10;;;;;;;;;;10371933;28;20068;-81
2022/09/18 21:44:16;;;;;;;6.18;0.93;;;;;;;;;;10374086;28;20046;-79
2022/09/18 21:49:20;;;;;;;3.58;1.10;;;;;;;;;;10373035;28;20050;-77
2022/09/18 21:54:23;;;;;;;1.98;0.80;;;;;;;;;;10373985;28;20088;-79
2022/09/18 21:59:29;;;;;;;5.28;1.05;;;;;;;;;;10371418;28;20142;-77
